sensor_id;sensor_type;location;lat;lon;timestamp;P1;durP1;ratioP1;P2;durP2;ratioP2
5630;SDS011;2837;50.990;7.124;2022-07-09T05:03:04;151.97;;;9.83;;
5630;SDS011;2837;50.990;7.124;2022-07-09T05:05:29;150.50;;;9.10;;
5630;SDS011;2837;50.990;7.124;2022-07-09T05:07:55;149.67;;;9.63;;
5630;SDS011;2837;50.990;7.124;2022-07-09T05:10:21;152.23;;;10.57;;
5630;SDS011;2837;50.990;7.124;2022-07-09T05:12:46;150.73;;;8.90;;
5630;SDS011;2837;50.990;7.124;2022-07-09T05:15:12;151.82;;;9.25;;
5630;SDS011;2837;50.990;7.124;2022-07-09T05:17:41;149.83;;;9.33;;
5630;SDS011;2837;50.990;7.124;2022-07-09T05:20:08;150.87;;;8.60;;
5630;SDS011;2837;50.990;7.124;2022-07-09T05:22:36;150.37;;;10.10;;
5630;SDS011;2837;50.990;7.124;2022-07-09T05:25:03;149.37;;;9.03;;
5630;SDS011;2837;50.990;7.124;2022-07-09T05:27:29;152.17;;;9.93;;
5630;SDS011;2837;50.990;7.124;2022-07-09T05:29:55;150.27;;;10.00;;
5630;SDS011;2837;50.990;7.124;2022-07-09T05:32:21;150.27;;;10.13;;
5630;SDS011;2837;50.990;7.124;2022-07-09T05:34:46;151.57;;;9.50;;
5630;SDS011;2837;50.990;7.124;2022-07-09T05:37:12;151.77;;;10.57;;
5630;SDS011;2837;50.990;7.124;2022-07-09T05:39:37;152.00;;;11.30;;
5630;SDS011;2837;50.990;7.124;2022-07-09T05:42:03;151.70;;;10.60;;
5630;SDS011;2837;50.990;7.124;2022-07-09T05:44:29;150.17;;;10.60;;
5630;SDS011;2837;50.990;7.124;2022-07-09T05:46:55;151.40;;;9.80;;
5630;SDS011;2837;50.990;7.124;2022-07-09T05:49:21;151.37;;;10.93;;
5630;SDS011;2837;50.990;7.124;2022-07-09T05:51:46;153.67;;;10.33;;
5630;SDS011;2837;50.990;7.124;2022-07-09T05:54:12;152.07;;;11.67;;
5630;SDS011;2837;50.990;7.124;2022-07-09T05:56:38;152.43;;;10.90;;
5630;SDS011;2837;50.990;7.124;2022-07-09T05:59:04;152.60;;;11.00;;
5630;SDS011;2837;50.990;7.124;2022-07-09T06:01:29;151.80;;;10.67;;
5630;SDS011;2837;50.990;7.124;2022-07-09T06:03:55;152.25;;;11.32;;
5630;SDS011;2837;50.990;7.124;2022-07-09T06:06:21;151.07;;;11.47;;
5630;SDS011;2837;50.990;7.124;2022-07-09T06:08:47;158.43;;;11.97;;
5630;SDS011;2837;50.990;7.124;2022-07-09T06:11:12;154.47;;;11.60;;
5630;SDS011;2837;50.990;7.124;2022-07-09T06:13:38;153.07;;;12.73;;
5630;SDS011;2837;50.990;7.124;2022-07-09T06:16:04;149.60;;;11.35;;
5630;SDS011;2837;50.990;7.124;2022-07-09T06:18:30;150.97;;;12.07;;
5630;SDS011;2837;50.990;7.124;2022-07-09T06:20:55;152.67;;;12.80;;
5630;SDS011;2837;50.990;7.124;2022-07-09T06:23:21;159.77;;;13.50;;
5630;SDS011;2837;50.990;7.124;2022-07-09T06:25:46;153.77;;;13.90;;
5630;SDS011;2837;50.990;7.124;2022-07-09T06:28:12;153.87;;;12.10;;
5630;SDS011;2837;50.990;7.124;2022-07-09T06:30:39;154.47;;;13.40;;
5630;SDS011;2837;50.990;7.124;2022-07-09T06:33:04;154.32;;;13.77;;
5630;SDS011;2837;50.990;7.124;2022-07-09T06:35:30;152.67;;;12.83;;
5630;SDS011;2837;50.990;7.124;2022-07-09T06:37:56;156.10;;;14.57;;
5630;SDS011;2837;50.990;7.124;2022-07-09T06:40:21;158.55;;;16.65;;
5630;SDS011;2837;50.990;7.124;2022-07-09T06:42:47;162.53;;;16.33;;
5630;SDS011;2837;50.990;7.124;2022-07-09T06:45:13;156.97;;;14.57;;
5630;SDS011;2837;50.990;7.124;2022-07-09T06:47:39;158.00;;;14.50;;
5630;SDS011;2837;50.990;7.124;2022-07-09T06:50:05;154.93;;;14.17;;
5630;SDS011;2837;50.990;7.124;2022-07-09T06:52:31;157.07;;;15.20;;
5630;SDS011;2837;50.990;7.124;2022-07-09T06:54:57;157.33;;;12.83;;
5630;SDS011;2837;50.990;7.124;2022-07-09T06:57:22;156.97;;;13.53;;
5630;SDS011;2837;50.990;7.124;2022-07-09T06:59:48;156.30;;;14.03;;
5630;SDS011;2837;50.990;7.124;2022-07-09T07:02:14;155.97;;;13.07;;
5630;SDS011;2837;50.990;7.124;2022-07-09T07:04:41;156.00;;;13.80;;
5630;SDS011;2837;50.990;7.124;2022-07-09T07:07:07;154.77;;;13.67;;
5630;SDS011;2837;50.990;7.124;2022-07-09T07:09:32;154.20;;;12.10;;
5630;SDS011;2837;50.990;7.124;2022-07-09T07:11:58;153.97;;;12.33;;
5630;SDS011;2837;50.990;7.124;2022-07-09T07:14:24;151.47;;;11.80;;
5630;SDS011;2837;50.990;7.124;2022-07-09T07:16:49;151.90;;;12.43;;
5630;SDS011;2837;50.990;7.124;2022-07-09T07:19:15;153.70;;;12.37;;
5630;SDS011;2837;50.990;7.124;2022-07-09T07:21:42;152.27;;;11.70;;
5630;SDS011;2837;50.990;7.124;2022-07-09T07:24:07;151.77;;;11.80;;
5630;SDS011;2837;50.990;7.124;2022-07-09T07:26:35;153.57;;;12.43;;
5630;SDS011;2837;50.990;7.124;2022-07-09T07:29:01;152.33;;;11.90;;
5630;SDS011;2837;50.990;7.124;2022-07-09T07:31:27;151.70;;;12.07;;
5630;SDS011;2837;50.990;7.124;2022-07-09T07:33:53;153.47;;;12.07;;
5630;SDS011;2837;50.990;7.124;2022-07-09T07:36:18;150.27;;;11.10;;
5630;SDS011;2837;50.990;7.124;2022-07-09T07:38:44;153.10;;;10.73;;
5630;SDS011;2837;50.990;7.124;2022-07-09T07:41:13;149.30;;;10.23;;
5630;SDS011;2837;50.990;7.124;2022-07-09T07:43:39;149.27;;;9.60;;
5630;SDS011;2837;50.990;7.124;2022-07-09T07:46:04;148.70;;;9.80;;
5630;SDS011;2837;50.990;7.124;2022-07-09T07:48:30;150.57;;;10.33;;
5630;SDS011;2837;50.990;7.124;2022-07-09T07:50:56;152.50;;;11.10;;
5630;SDS011;2837;50.990;7.124;2022-07-09T07:53:22;151.70;;;10.10;;
5630;SDS011;2837;50.990;7.124;2022-07-09T07:55:48;149.57;;;10.43;;
5630;SDS011;2837;50.990;7.124;2022-07-09T07:58:14;150.48;;;10.13;;
5630;SDS011;2837;50.990;7.124;2022-07-09T08:00:40;151.00;;;9.70;;
5630;SDS011;2837;50.990;7.124;2022-07-09T08:03:06;150.50;;;9.70;;
5630;SDS011;2837;50.990;7.124;2022-07-09T08:05:31;151.47;;;10.40;;
5630;SDS011;2837;50.990;7.124;2022-07-09T08:07:57;150.65;;;10.05;;
5630;SDS011;2837;50.990;7.124;2022-07-09T08:10:23;149.97;;;9.23;;
5630;SDS011;2837;50.990;7.124;2022-07-09T08:12:49;151.17;;;10.30;;
5630;SDS011;2837;50.990;7.124;2022-07-09T08:15:14;149.77;;;10.10;;
5630;SDS011;2837;50.990;7.124;2022-07-09T08:17:40;152.57;;;10.33;;
5630;SDS011;2837;50.990;7.124;2022-07-09T08:20:06;151.03;;;10.20;;
5630;SDS011;2837;50.990;7.124;2022-07-09T08:22:32;151.30;;;10.07;;
5630;SDS011;2837;50.990;7.124;2022-07-09T08:24:57;150.60;;;10.80;;
5630;SDS011;2837;50.990;7.124;2022-07-09T08:27:23;149.97;;;9.50;;
5630;SDS011;2837;50.990;7.124;2022-07-09T08:29:48;154.47;;;10.67;;
5630;SDS011;2837;50.990;7.124;2022-07-09T08:32:14;149.63;;;10.03;;
5630;SDS011;2837;50.990;7.124;2022-07-09T08:34:40;150.07;;;10.10;;
5630;SDS011;2837;50.990;7.124;2022-07-09T08:37:06;148.00;;;8.60;;
5630;SDS011;2837;50.990;7.124;2022-07-09T08:39:32;149.67;;;9.50;;
5630;SDS011;2837;50.990;7.124;2022-07-09T08:41:58;147.82;;;8.95;;
5630;SDS011;2837;50.990;7.124;2022-07-09T08:44:25;148.27;;;9.07;;
5630;SDS011;2837;50.990;7.124;2022-07-09T08:46:53;148.67;;;8.87;;
5630;SDS011;2837;50.990;7.124;2022-07-09T08:49:19;148.40;;;9.20;;
5630;SDS011;2837;50.990;7.124;2022-07-09T08:51:47;148.40;;;9.50;;
5630;SDS011;2837;50.990;7.124;2022-07-09T08:54:15;148.20;;;8.77;;
5630;SDS011;2837;50.990;7.124;2022-07-09T08:56:41;149.98;;;9.43;;
5630;SDS011;2837;50.990;7.124;2022-07-09T08:59:07;147.50;;;8.40;;
5630;SDS011;2837;50.990;7.124;2022-07-09T09:01:32;147.40;;;8.70;;
5630;SDS011;2837;50.990;7.124;2022-07-09T09:03:59;148.50;;;9.43;;
5630;SDS011;2837;50.990;7.124;2022-07-09T09:06:26;148.73;;;9.20;;
5630;SDS011;2837;50.990;7.124;2022-07-09T09:08:53;148.37;;;9.40;;
5630;SDS011;2837;50.990;7.124;2022-07-09T09:11:21;148.30;;;8.50;;
5630;SDS011;2837;50.990;7.124;2022-07-09T09:13:48;137.65;;;7.88;;
5630;SDS011;2837;50.990;7.124;2022-07-09T09:16:15;150.67;;;9.00;;
5630;SDS011;2837;50.990;7.124;2022-07-09T09:18:42;147.40;;;7.93;;
5630;SDS011;2837;50.990;7.124;2022-07-09T09:21:10;146.77;;;8.10;;
5630;SDS011;2837;50.990;7.124;2022-07-09T09:33:44;148.17;;;8.20;;
5630;SDS011;2837;50.990;7.124;2022-07-09T09:36:10;147.10;;;8.07;;
5630;SDS011;2837;50.990;7.124;2022-07-09T09:38:35;146.27;;;7.50;;
5630;SDS011;2837;50.990;7.124;2022-07-09T09:41:01;147.03;;;8.17;;
5630;SDS011;2837;50.990;7.124;2022-07-09T09:43:26;147.27;;;7.70;;
5630;SDS011;2837;50.990;7.124;2022-07-09T09:45:55;151.07;;;8.83;;
5630;SDS011;2837;50.990;7.124;2022-07-09T09:48:24;148.03;;;8.33;;
5630;SDS011;2837;50.990;7.124;2022-07-09T09:50:49;147.63;;;8.20;;
5630;SDS011;2837;50.990;7.124;2022-07-09T09:53:18;147.55;;;8.50;;
5630;SDS011;2837;50.990;7.124;2022-07-09T09:55:46;147.97;;;8.27;;
5630;SDS011;2837;50.990;7.124;2022-07-09T09:58:12;147.73;;;8.67;;
5630;SDS011;2837;50.990;7.124;2022-07-09T10:00:38;147.00;;;8.17;;
5630;SDS011;2837;50.990;7.124;2022-07-09T10:03:04;146.50;;;7.80;;
5630;SDS011;2837;50.990;7.124;2022-07-09T10:05:30;146.77;;;8.13;;
5630;SDS011;2837;50.990;7.124;2022-07-09T10:07:56;149.00;;;8.37;;
5630;SDS011;2837;50.990;7.124;2022-07-09T10:10:21;147.90;;;8.53;;
5630;SDS011;2837;50.990;7.124;2022-07-09T10:12:48;149.03;;;8.40;;
5630;SDS011;2837;50.990;7.124;2022-07-09T10:17:51;146.83;;;8.47;;
5630;SDS011;2837;50.990;7.124;2022-07-09T10:20:17;147.87;;;8.37;;
5630;SDS011;2837;50.990;7.124;2022-07-09T10:22:53;147.27;;;7.95;;
5630;SDS011;2837;50.990;7.124;2022-07-09T10:25:23;147.23;;;7.70;;
5630;SDS011;2837;50.990;7.124;2022-07-09T10:27:54;146.23;;;8.47;;
5630;SDS011;2837;50.990;7.124;2022-07-09T10:30:23;146.10;;;8.50;;
5630;SDS011;2837;50.990;7.124;2022-07-09T10:33:03;147.63;;;8.33;;
5630;SDS011;2837;50.990;7.124;2022-07-09T10:35:30;145.93;;;7.68;;
5630;SDS011;2837;50.990;7.124;2022-07-09T10:38:03;145.00;;;7.83;;
5630;SDS011;2837;50.990;7.124;2022-07-09T10:40:36;145.40;;;7.47;;
5630;SDS011;2837;50.990;7.124;2022-07-09T10:43:03;145.55;;;8.00;;
5630;SDS011;2837;50.990;7.124;2022-07-09T10:45:35;145.53;;;8.03;;
5630;SDS011;2837;50.990;7.124;2022-07-09T10:48:06;144.70;;;7.40;;
5630;SDS011;2837;50.990;7.124;2022-07-09T10:50:35;145.27;;;7.80;;
5630;SDS011;2837;50.990;7.124;2022-07-09T10:53:03;147.25;;;7.78;;
5630;SDS011;2837;50.990;7.124;2022-07-09T10:55:29;144.40;;;7.47;;
5630;SDS011;2837;50.990;7.124;2022-07-09T10:57:55;145.40;;;8.03;;
5630;SDS011;2837;50.990;7.124;2022-07-09T11:00:22;145.90;;;7.90;;
5630;SDS011;2837;50.990;7.124;2022-07-09T11:02:56;144.27;;;7.70;;
5630;SDS011;2837;50.990;7.124;2022-07-09T11:05:26;145.07;;;8.00;;
5630;SDS011;2837;50.990;7.124;2022-07-09T11:08:03;144.88;;;7.95;;
5630;SDS011;2837;50.990;7.124;2022-07-09T11:10:30;146.77;;;8.40;;
5630;SDS011;2837;50.990;7.124;2022-07-09T11:12:57;144.70;;;7.50;;
5630;SDS011;2837;50.990;7.124;2022-07-09T11:15:25;145.17;;;7.77;;
5630;SDS011;2837;50.990;7.124;2022-07-09T11:17:58;145.47;;;8.10;;
5630;SDS011;2837;50.990;7.124;2022-07-09T11:20:27;144.97;;;8.07;;
5630;SDS011;2837;50.990;7.124;2022-07-09T11:22:54;144.87;;;8.20;;
5630;SDS011;2837;50.990;7.124;2022-07-09T11:25:21;145.97;;;8.93;;
5630;SDS011;2837;50.990;7.124;2022-07-09T11:27:49;147.80;;;8.83;;
5630;SDS011;2837;50.990;7.124;2022-07-09T11:30:15;145.30;;;8.13;;
5630;SDS011;2837;50.990;7.124;2022-07-09T11:32:41;144.75;;;7.90;;
5630;SDS011;2837;50.990;7.124;2022-07-09T11:35:08;145.23;;;8.70;;
5630;SDS011;2837;50.990;7.124;2022-07-09T11:37:34;143.63;;;7.40;;
5630;SDS011;2837;50.990;7.124;2022-07-09T11:40:00;144.40;;;8.20;;
5630;SDS011;2837;50.990;7.124;2022-07-09T11:42:26;146.97;;;8.37;;
5630;SDS011;2837;50.990;7.124;2022-07-09T11:45:01;146.90;;;9.07;;
5630;SDS011;2837;50.990;7.124;2022-07-09T11:47:36;144.73;;;7.63;;
5630;SDS011;2837;50.990;7.124;2022-07-09T11:50:11;144.75;;;7.47;;
5630;SDS011;2837;50.990;7.124;2022-07-09T11:52:44;145.10;;;8.23;;
5630;SDS011;2837;50.990;7.124;2022-07-09T11:55:13;145.77;;;7.90;;
5630;SDS011;2837;50.990;7.124;2022-07-09T11:57:56;146.07;;;8.80;;
5630;SDS011;2837;50.990;7.124;2022-07-09T12:00:30;145.00;;;7.93;;
5630;SDS011;2837;50.990;7.124;2022-07-09T12:02:58;146.37;;;8.83;;
5630;SDS011;2837;50.990;7.124;2022-07-09T12:07:58;146.07;;;8.20;;
5630;SDS011;2837;50.990;7.124;2022-07-09T12:10:28;145.57;;;7.60;;
5630;SDS011;2837;50.990;7.124;2022-07-09T12:12:56;143.82;;;7.45;;
5630;SDS011;2837;50.990;7.124;2022-07-09T12:15:22;145.05;;;7.85;;
5630;SDS011;2837;50.990;7.124;2022-07-09T12:17:52;143.35;;;7.68;;
5630;SDS011;2837;50.990;7.124;2022-07-09T12:20:25;142.50;;;7.50;;
5630;SDS011;2837;50.990;7.124;2022-07-09T12:22:56;140.88;;;7.28;;
5630;SDS011;2837;50.990;7.124;2022-07-09T12:25:22;144.90;;;8.27;;
5630;SDS011;2837;50.990;7.124;2022-07-09T12:27:48;143.43;;;7.68;;
5630;SDS011;2837;50.990;7.124;2022-07-09T12:30:14;143.00;;;7.05;;
5630;SDS011;2837;50.990;7.124;2022-07-09T12:32:41;146.90;;;7.00;;
5630;SDS011;2837;50.990;7.124;2022-07-09T12:35:07;144.83;;;7.77;;
5630;SDS011;2837;50.990;7.124;2022-07-09T12:37:34;145.23;;;8.00;;
5630;SDS011;2837;50.990;7.124;2022-07-09T12:40:00;144.23;;;8.03;;
5630;SDS011;2837;50.990;7.124;2022-07-09T12:42:27;144.20;;;7.90;;
5630;SDS011;2837;50.990;7.124;2022-07-09T12:44:52;145.20;;;8.10;;
5630;SDS011;2837;50.990;7.124;2022-07-09T12:47:18;144.63;;;8.43;;
5630;SDS011;2837;50.990;7.124;2022-07-09T12:49:44;144.60;;;7.50;;
5630;SDS011;2837;50.990;7.124;2022-07-09T12:52:09;145.87;;;8.67;;
5630;SDS011;2837;50.990;7.124;2022-07-09T12:54:35;145.47;;;9.23;;
5630;SDS011;2837;50.990;7.124;2022-07-09T12:57:01;145.07;;;8.37;;
5630;SDS011;2837;50.990;7.124;2022-07-09T12:59:26;146.03;;;9.20;;
5630;SDS011;2837;50.990;7.124;2022-07-09T13:01:52;146.77;;;9.17;;
5630;SDS011;2837;50.990;7.124;2022-07-09T13:04:18;143.60;;;8.80;;
5630;SDS011;2837;50.990;7.124;2022-07-09T13:06:43;145.07;;;8.37;;
5630;SDS011;2837;50.990;7.124;2022-07-09T13:09:09;144.77;;;7.70;;
5630;SDS011;2837;50.990;7.124;2022-07-09T13:11:35;145.13;;;8.23;;
5630;SDS011;2837;50.990;7.124;2022-07-09T13:14:02;144.38;;;7.85;;
5630;SDS011;2837;50.990;7.124;2022-07-09T13:16:28;143.90;;;7.80;;
5630;SDS011;2837;50.990;7.124;2022-07-09T13:18:54;144.40;;;8.13;;
5630;SDS011;2837;50.990;7.124;2022-07-09T13:21:20;144.23;;;7.80;;
5630;SDS011;2837;50.990;7.124;2022-07-09T13:23:46;144.87;;;8.37;;
5630;SDS011;2837;50.990;7.124;2022-07-09T13:26:12;146.10;;;8.50;;
5630;SDS011;2837;50.990;7.124;2022-07-09T13:28:39;145.27;;;8.50;;
5630;SDS011;2837;50.990;7.124;2022-07-09T13:31:05;143.82;;;7.97;;
5630;SDS011;2837;50.990;7.124;2022-07-09T13:33:34;142.85;;;7.60;;
5630;SDS011;2837;50.990;7.124;2022-07-09T13:36:00;148.07;;;8.90;;
5630;SDS011;2837;50.990;7.124;2022-07-09T13:38:26;144.45;;;8.32;;
5630;SDS011;2837;50.990;7.124;2022-07-09T13:40:52;146.27;;;7.50;;
5630;SDS011;2837;50.990;7.124;2022-07-09T13:43:18;143.27;;;7.63;;
5630;SDS011;2837;50.990;7.124;2022-07-09T13:45:44;144.67;;;8.50;;
5630;SDS011;2837;50.990;7.124;2022-07-09T13:48:10;146.10;;;8.30;;
5630;SDS011;2837;50.990;7.124;2022-07-09T13:50:35;145.77;;;8.67;;
5630;SDS011;2837;50.990;7.124;2022-07-09T13:53:04;145.50;;;8.23;;
5630;SDS011;2837;50.990;7.124;2022-07-09T13:55:30;146.97;;;9.57;;
5630;SDS011;2837;50.990;7.124;2022-07-09T13:57:56;146.20;;;8.90;;
5630;SDS011;2837;50.990;7.124;2022-07-09T14:00:21;145.90;;;9.03;;
5630;SDS011;2837;50.990;7.124;2022-07-09T14:02:47;145.00;;;8.65;;
5630;SDS011;2837;50.990;7.124;2022-07-09T14:05:13;145.17;;;8.37;;
5630;SDS011;2837;50.990;7.124;2022-07-09T14:07:39;145.37;;;9.00;;
5630;SDS011;2837;50.990;7.124;2022-07-09T14:10:05;146.47;;;9.60;;
5630;SDS011;2837;50.990;7.124;2022-07-09T14:12:31;148.60;;;10.80;;
5630;SDS011;2837;50.990;7.124;2022-07-09T14:14:57;147.97;;;10.73;;
5630;SDS011;2837;50.990;7.124;2022-07-09T14:17:24;159.37;;;10.90;;
5630;SDS011;2837;50.990;7.124;2022-07-09T14:19:52;148.87;;;10.17;;
5630;SDS011;2837;50.990;7.124;2022-07-09T14:22:18;147.15;;;10.52;;
5630;SDS011;2837;50.990;7.124;2022-07-09T14:24:45;149.10;;;10.77;;
5630;SDS011;2837;50.990;7.124;2022-07-09T14:27:11;148.20;;;9.83;;
5630;SDS011;2837;50.990;7.124;2022-07-09T14:29:37;147.07;;;10.10;;
5630;SDS011;2837;50.990;7.124;2022-07-09T14:32:03;150.73;;;9.90;;
5630;SDS011;2837;50.990;7.124;2022-07-09T14:34:29;149.37;;;10.40;;
5630;SDS011;2837;50.990;7.124;2022-07-09T14:36:55;148.17;;;10.17;;
5630;SDS011;2837;50.990;7.124;2022-07-09T14:39:21;148.87;;;10.20;;
5630;SDS011;2837;50.990;7.124;2022-07-09T14:41:47;148.07;;;9.87;;
5630;SDS011;2837;50.990;7.124;2022-07-09T14:44:13;147.07;;;9.80;;
5630;SDS011;2837;50.990;7.124;2022-07-09T14:46:39;154.98;;;9.45;;
5630;SDS011;2837;50.990;7.124;2022-07-09T14:49:05;147.17;;;9.50;;
5630;SDS011;2837;50.990;7.124;2022-07-09T14:51:31;147.20;;;8.93;;
5630;SDS011;2837;50.990;7.124;2022-07-09T14:53:58;149.57;;;9.53;;
5630;SDS011;2837;50.990;7.124;2022-07-09T14:56:24;147.87;;;9.30;;
5630;SDS011;2837;50.990;7.124;2022-07-09T14:58:49;148.80;;;9.53;;
5630;SDS011;2837;50.990;7.124;2022-07-09T15:01:15;146.37;;;9.03;;
5630;SDS011;2837;50.990;7.124;2022-07-09T15:03:41;148.90;;;9.87;;
5630;SDS011;2837;50.990;7.124;2022-07-09T15:06:06;147.17;;;9.83;;
5630;SDS011;2837;50.990;7.124;2022-07-09T15:08:32;147.20;;;10.50;;
5630;SDS011;2837;50.990;7.124;2022-07-09T15:10:58;147.67;;;9.03;;
5630;SDS011;2837;50.990;7.124;2022-07-09T15:13:24;147.43;;;10.20;;
5630;SDS011;2837;50.990;7.124;2022-07-09T15:15:51;146.17;;;9.33;;
5630;SDS011;2837;50.990;7.124;2022-07-09T15:18:17;147.10;;;10.07;;
5630;SDS011;2837;50.990;7.124;2022-07-09T15:20:42;146.43;;;10.03;;
5630;SDS011;2837;50.990;7.124;2022-07-09T15:23:08;146.17;;;9.10;;
5630;SDS011;2837;50.990;7.124;2022-07-09T15:25:34;146.60;;;9.63;;
5630;SDS011;2837;50.990;7.124;2022-07-09T15:27:59;146.40;;;8.90;;
5630;SDS011;2837;50.990;7.124;2022-07-09T15:30:25;145.25;;;9.15;;
5630;SDS011;2837;50.990;7.124;2022-07-09T15:32:51;146.50;;;8.90;;
5630;SDS011;2837;50.990;7.124;2022-07-09T15:35:16;146.37;;;9.13;;
5630;SDS011;2837;50.990;7.124;2022-07-09T15:37:42;148.63;;;9.93;;
5630;SDS011;2837;50.990;7.124;2022-07-09T15:40:08;144.90;;;8.87;;
5630;SDS011;2837;50.990;7.124;2022-07-09T15:42:34;146.57;;;8.90;;
5630;SDS011;2837;50.990;7.124;2022-07-09T15:44:59;145.90;;;8.80;;
5630;SDS011;2837;50.990;7.124;2022-07-09T15:47:25;144.90;;;7.63;;
5630;SDS011;2837;50.990;7.124;2022-07-09T15:49:52;147.27;;;9.37;;
5630;SDS011;2837;50.990;7.124;2022-07-09T15:52:17;145.87;;;8.63;;
5630;SDS011;2837;50.990;7.124;2022-07-09T15:54:43;145.50;;;8.33;;
5630;SDS011;2837;50.990;7.124;2022-07-09T15:57:09;145.07;;;8.13;;
5630;SDS011;2837;50.990;7.124;2022-07-09T15:59:35;144.80;;;8.20;;
5630;SDS011;2837;50.990;7.124;2022-07-09T16:02:00;144.50;;;8.15;;
5630;SDS011;2837;50.990;7.124;2022-07-09T16:04:26;146.10;;;8.57;;
5630;SDS011;2837;50.990;7.124;2022-07-09T16:06:52;145.60;;;8.57;;
5630;SDS011;2837;50.990;7.124;2022-07-09T16:09:18;144.07;;;8.23;;
5630;SDS011;2837;50.990;7.124;2022-07-09T16:11:43;145.50;;;7.90;;
5630;SDS011;2837;50.990;7.124;2022-07-09T16:14:28;145.80;;;8.47;;
5630;SDS011;2837;50.990;7.124;2022-07-09T16:16:54;144.13;;;8.18;;
5630;SDS011;2837;50.990;7.124;2022-07-09T16:19:20;146.07;;;8.80;;
5630;SDS011;2837;50.990;7.124;2022-07-09T16:21:46;143.77;;;7.37;;
5630;SDS011;2837;50.990;7.124;2022-07-09T16:24:11;143.85;;;8.10;;
5630;SDS011;2837;50.990;7.124;2022-07-09T16:26:37;143.87;;;7.60;;
5630;SDS011;2837;50.990;7.124;2022-07-09T16:29:02;144.07;;;7.70;;
5630;SDS011;2837;50.990;7.124;2022-07-09T16:31:28;143.65;;;7.75;;
5630;SDS011;2837;50.990;7.124;2022-07-09T16:33:53;145.40;;;7.70;;
5630;SDS011;2837;50.990;7.124;2022-07-09T16:36:19;144.77;;;8.13;;
5630;SDS011;2837;50.990;7.124;2022-07-09T16:38:45;144.43;;;7.50;;
5630;SDS011;2837;50.990;7.124;2022-07-09T16:41:11;144.53;;;7.50;;
5630;SDS011;2837;50.990;7.124;2022-07-09T16:43:38;144.57;;;7.70;;
5630;SDS011;2837;50.990;7.124;2022-07-09T16:46:03;144.90;;;7.93;;
5630;SDS011;2837;50.990;7.124;2022-07-09T16:48:44;145.17;;;8.43;;
5630;SDS011;2837;50.990;7.124;2022-07-09T16:51:11;146.10;;;8.50;;
5630;SDS011;2837;50.990;7.124;2022-07-09T16:53:38;144.60;;;7.63;;
5630;SDS011;2837;50.990;7.124;2022-07-09T16:56:04;143.68;;;8.13;;
5630;SDS011;2837;50.990;7.124;2022-07-09T16:58:30;143.25;;;8.00;;
5630;SDS011;2837;50.990;7.124;2022-07-09T17:00:57;144.30;;;7.60;;
5630;SDS011;2837;50.990;7.124;2022-07-09T17:03:23;144.10;;;7.50;;
5630;SDS011;2837;50.990;7.124;2022-07-09T17:05:48;147.38;;;7.65;;
5630;SDS011;2837;50.990;7.124;2022-07-09T17:08:14;144.07;;;7.70;;
5630;SDS011;2837;50.990;7.124;2022-07-09T17:10:40;144.47;;;7.50;;
5630;SDS011;2837;50.990;7.124;2022-07-09T17:13:05;144.47;;;8.13;;
5630;SDS011;2837;50.990;7.124;2022-07-09T17:15:31;144.53;;;8.27;;
5630;SDS011;2837;50.990;7.124;2022-07-09T17:17:57;144.25;;;7.95;;
5630;SDS011;2837;50.990;7.124;2022-07-09T17:20:23;147.70;;;7.73;;
5630;SDS011;2837;50.990;7.124;2022-07-09T17:22:48;145.70;;;7.60;;
5630;SDS011;2837;50.990;7.124;2022-07-09T17:25:17;144.07;;;7.70;;
5630;SDS011;2837;50.990;7.124;2022-07-09T17:27:49;144.33;;;7.50;;
5630;SDS011;2837;50.990;7.124;2022-07-09T17:30:14;144.10;;;7.90;;
5630;SDS011;2837;50.990;7.124;2022-07-09T17:32:41;146.50;;;8.27;;
5630;SDS011;2837;50.990;7.124;2022-07-09T17:35:08;144.40;;;7.70;;
5630;SDS011;2837;50.990;7.124;2022-07-09T17:37:34;144.87;;;7.50;;
5630;SDS011;2837;50.990;7.124;2022-07-09T17:40:00;145.40;;;7.80;;
5630;SDS011;2837;50.990;7.124;2022-07-09T17:42:25;144.87;;;8.00;;
5630;SDS011;2837;50.990;7.124;2022-07-09T17:44:51;145.17;;;8.00;;
5630;SDS011;2837;50.990;7.124;2022-07-09T17:47:17;144.97;;;7.70;;
5630;SDS011;2837;50.990;7.124;2022-07-09T17:49:43;145.50;;;7.87;;
5630;SDS011;2837;50.990;7.124;2022-07-09T17:52:08;144.57;;;8.00;;
5630;SDS011;2837;50.990;7.124;2022-07-09T17:54:34;144.60;;;8.03;;
5630;SDS011;2837;50.990;7.124;2022-07-09T17:57:00;144.87;;;7.93;;
5630;SDS011;2837;50.990;7.124;2022-07-09T17:59:26;144.30;;;7.43;;
5630;SDS011;2837;50.990;7.124;2022-07-09T18:01:52;146.70;;;7.63;;
5630;SDS011;2837;50.990;7.124;2022-07-09T18:04:17;145.20;;;8.23;;
5630;SDS011;2837;50.990;7.124;2022-07-09T18:06:43;144.97;;;7.67;;
5630;SDS011;2837;50.990;7.124;2022-07-09T18:09:10;144.77;;;7.40;;
5630;SDS011;2837;50.990;7.124;2022-07-09T18:11:35;145.70;;;8.37;;
5630;SDS011;2837;50.990;7.124;2022-07-09T18:14:01;145.77;;;8.40;;
5630;SDS011;2837;50.990;7.124;2022-07-09T18:16:27;145.97;;;8.63;;
5630;SDS011;2837;50.990;7.124;2022-07-09T18:18:53;145.37;;;8.30;;
5630;SDS011;2837;50.990;7.124;2022-07-09T18:21:19;145.77;;;8.10;;
5630;SDS011;2837;50.990;7.124;2022-07-09T18:23:44;146.37;;;8.50;;
5630;SDS011;2837;50.990;7.124;2022-07-09T18:26:11;145.57;;;8.17;;
5630;SDS011;2837;50.990;7.124;2022-07-09T18:28:36;145.50;;;7.60;;
5630;SDS011;2837;50.990;7.124;2022-07-09T18:31:02;145.47;;;8.10;;
5630;SDS011;2837;50.990;7.124;2022-07-09T18:33:28;144.83;;;7.70;;
5630;SDS011;2837;50.990;7.124;2022-07-09T18:35:54;145.20;;;7.50;;
5630;SDS011;2837;50.990;7.124;2022-07-09T18:38:20;144.25;;;7.38;;
5630;SDS011;2837;50.990;7.124;2022-07-09T18:40:45;145.50;;;7.77;;
5630;SDS011;2837;50.990;7.124;2022-07-09T18:43:11;145.57;;;7.87;;
5630;SDS011;2837;50.990;7.124;2022-07-09T18:45:37;144.50;;;7.17;;
5630;SDS011;2837;50.990;7.124;2022-07-09T18:48:02;145.57;;;8.37;;
5630;SDS011;2837;50.990;7.124;2022-07-09T18:50:29;149.60;;;7.97;;
5630;SDS011;2837;50.990;7.124;2022-07-09T18:52:58;145.67;;;7.70;;
5630;SDS011;2837;50.990;7.124;2022-07-09T18:55:24;144.50;;;7.17;;
5630;SDS011;2837;50.990;7.124;2022-07-09T18:57:51;147.10;;;8.20;;
5630;SDS011;2837;50.990;7.124;2022-07-09T19:00:16;145.93;;;7.70;;
5630;SDS011;2837;50.990;7.124;2022-07-09T19:02:42;145.17;;;7.83;;
5630;SDS011;2837;50.990;7.124;2022-07-09T19:05:09;146.63;;;7.57;;
5630;SDS011;2837;50.990;7.124;2022-07-09T19:07:35;147.00;;;8.37;;
5630;SDS011;2837;50.990;7.124;2022-07-09T19:10:02;146.20;;;7.47;;
5630;SDS011;2837;50.990;7.124;2022-07-09T19:12:28;147.20;;;8.47;;
5630;SDS011;2837;50.990;7.124;2022-07-09T19:14:54;148.57;;;8.20;;
5630;SDS011;2837;50.990;7.124;2022-07-09T19:17:20;148.37;;;8.00;;
5630;SDS011;2837;50.990;7.124;2022-07-09T19:19:45;145.18;;;7.85;;
5630;SDS011;2837;50.990;7.124;2022-07-09T19:22:11;145.83;;;7.77;;
5630;SDS011;2837;50.990;7.124;2022-07-09T19:24:37;146.47;;;7.40;;
5630;SDS011;2837;50.990;7.124;2022-07-09T19:27:03;145.77;;;7.63;;
5630;SDS011;2837;50.990;7.124;2022-07-09T19:29:28;145.70;;;7.05;;
5630;SDS011;2837;50.990;7.124;2022-07-09T19:31:54;147.30;;;7.20;;
5630;SDS011;2837;50.990;7.124;2022-07-09T19:34:38;147.20;;;8.20;;
5630;SDS011;2837;50.990;7.124;2022-07-09T19:37:04;146.10;;;7.60;;
5630;SDS011;2837;50.990;7.124;2022-07-09T19:39:30;147.70;;;7.70;;
5630;SDS011;2837;50.990;7.124;2022-07-09T19:41:55;146.45;;;7.68;;
5630;SDS011;2837;50.990;7.124;2022-07-09T19:44:21;147.27;;;7.70;;
5630;SDS011;2837;50.990;7.124;2022-07-09T19:46:50;145.07;;;7.30;;
5630;SDS011;2837;50.990;7.124;2022-07-09T19:49:15;150.27;;;7.83;;
5630;SDS011;2837;50.990;7.124;2022-07-09T19:51:41;146.97;;;8.67;;
5630;SDS011;2837;50.990;7.124;2022-07-09T19:54:07;147.87;;;8.37;;
5630;SDS011;2837;50.990;7.124;2022-07-09T19:56:33;147.03;;;8.50;;
5630;SDS011;2837;50.990;7.124;2022-07-09T19:58:59;147.27;;;8.20;;